Time;durP1;ratioP1;P1;durP2;ratioP2;P2;SDS_P1;SDS_P2;PMS_P1;PMS_P2;Temp;Humidity;BMP_temperature;BMP_pressure;BME280_temperature;BME280_humidity;BME280_pressure;Samples;Min_cycle;Max_cycle;Signal;HPM_P1;HPM_P2
2023/11/19 00:00:18;;;;;;;1148.10;999.90;;;11.90;99.90;;;;;;6155540;23;20465;-79
2023/11/19 00:02:45;;;;;;;1200.43;999.90;;;11.90;99.90;;;;;;6155463;23;20746;-78
2023/11/19 00:05:12;;;;;;;1181.63;999.90;;;12.00;99.90;;;;;;6155202;23;20413;-79
2023/11/19 00:07:41;;;;;;;1159.73;999.90;;;12.00;99.90;;;;;;6155131;23;20438;-78
2023/11/19 00:10:09;;;;;;;1170.33;999.90;;;12.10;99.90;;;;;;6155427;23;20429;-77
2023/11/19 00:12:37;;;;;;;1238.30;999.90;;;12.10;99.90;;;;;;6155245;23;20917;-78
2023/11/19 00:15:04;;;;;;;1166.37;999.90;;;12.10;99.90;;;;;;6155125;23;20421;-78
2023/11/19 00:17:31;;;;;;;1154.00;999.90;;;12.10;99.90;;;;;;6155445;23;20806;-78
2023/11/19 00:19:58;;;;;;;1137.40;999.90;;;12.10;99.90;;;;;;6154995;23;20410;-78
2023/11/19 00:22:25;;;;;;;1124.07;994.77;;;12.20;99.90;;;;;;6155095;23;20445;-78
2023/11/19 00:24:54;;;;;;;1116.07;983.80;;;12.20;99.90;;;;;;6155451;23;20421;-79
2023/11/19 00:27:21;;;;;;;1111.23;978.77;;;12.10;99.90;;;;;;6155578;23;20413;-79
2023/11/19 00:29:47;;;;;;;1093.47;967.20;;;12.10;99.90;;;;;;6154904;23;20445;-79
2023/11/19 00:32:39;;;;;;;1084.17;946.47;;;12.20;99.90;;;;;;6155430;23;20414;-79
2023/11/19 00:35:07;;;;;;;1082.93;948.57;;;12.20;99.90;;;;;;6154397;23;20449;-79
2023/11/19 00:37:33;;;;;;;1062.83;936.33;;;12.20;99.90;;;;;;6154558;23;20520;-78
2023/11/19 00:40:05;;;;;;;1121.00;999.90;;;12.20;99.90;;;;;;6155127;23;20424;-79
2023/11/19 00:42:32;;;;;;;1136.40;999.90;;;12.20;99.90;;;;;;6155575;23;20702;-79
2023/11/19 00:44:58;;;;;;;1118.07;999.30;;;12.30;99.90;;;;;;6155312;23;20410;-79
2023/11/19 00:47:25;;;;;;;1092.83;976.60;;;12.30;99.90;;;;;;6155246;23;20488;-79
2023/11/19 00:49:52;;;;;;;1094.87;979.47;;;12.30;99.90;;;;;;6154959;23;20477;-79
2023/11/19 00:52:20;;;;;;;1087.40;972.33;;;12.30;99.90;;;;;;6155326;23;20397;-79
2023/11/19 00:54:47;;;;;;;1065.80;951.93;;;12.30;99.90;;;;;;6154712;23;20423;-80
2023/11/19 00:57:15;;;;;;;1041.90;929.10;;;12.20;99.90;;;;;;6155594;23;20422;-79
2023/11/19 00:59:43;;;;;;;1049.53;937.30;;;12.20;99.90;;;;;;6155179;23;20410;-80
2023/11/19 01:02:09;;;;;;;1038.20;926.07;;;12.30;99.90;;;;;;6154783;23;20412;-79
2023/11/19 01:04:38;;;;;;;1046.70;936.40;;;12.30;99.90;;;;;;6154634;23;20448;-78
2023/11/19 01:07:05;;;;;;;1040.80;930.97;;;12.30;99.90;;;;;;6155220;23;20412;-78
2023/11/19 01:09:34;;;;;;;1033.43;924.33;;;12.30;99.90;;;;;;6154800;23;20413;-78
2023/11/19 01:12:01;;;;;;;1034.73;926.07;;;12.30;99.90;;;;;;6155269;23;20410;-78
2023/11/19 01:14:30;;;;;;;1023.30;915.00;;;12.30;99.90;;;;;;6154390;23;20448;-78
2023/11/19 01:16:57;;;;;;;1026.23;918.93;;;12.30;99.90;;;;;;6154664;23;20977;-79
2023/11/19 01:19:24;;;;;;;1026.40;918.47;;;12.30;99.90;;;;;;6154687;23;20417;-78
2023/11/19 01:21:51;;;;;;;1020.73;912.47;;;12.30;99.90;;;;;;6155020;23;20409;-79
2023/11/19 01:24:18;;;;;;;1030.30;921.13;;;12.40;99.90;;;;;;6155096;23;20432;-79
2023/11/19 01:26:45;;;;;;;1031.30;921.90;;;12.30;99.90;;;;;;6155092;23;20409;-80
2023/11/19 01:29:13;;;;;;;1046.27;935.27;;;12.30;99.90;;;;;;6154464;23;20410;-80
2023/11/19 01:31:42;;;;;;;1055.57;942.90;;;12.30;99.90;;;;;;6155077;23;20410;-80
2023/11/19 01:34:09;;;;;;;1027.33;915.53;;;12.40;99.90;;;;;;6154904;23;20492;-80
2023/11/19 01:36:36;;;;;;;1026.30;915.20;;;12.40;99.90;;;;;;6154956;23;20524;-80
2023/11/19 01:39:04;;;;;;;1018.27;905.77;;;12.50;99.90;;;;;;6154562;23;20410;-80
2023/11/19 01:41:34;;;;;;;1013.87;902.50;;;12.50;99.90;;;;;;6155082;23;20460;-81
2023/11/19 01:44:01;;;;;;;1010.63;899.27;;;12.50;99.90;;;;;;6155042;23;20401;-81
2023/11/19 01:46:28;;;;;;;1045.27;935.20;;;12.50;99.90;;;;;;6155083;23;20509;-81
2023/11/19 01:48:57;;;;;;;1043.53;934.33;;;12.50;99.90;;;;;;6154980;23;20548;-81
2023/11/19 01:51:24;;;;;;;1036.37;927.53;;;12.60;99.90;;;;;;6155043;23;20492;-81
2023/11/19 01:53:52;;;;;;;1006.57;900.57;;;12.60;99.90;;;;;;6154733;23;20893;-80
2023/11/19 01:56:19;;;;;;;996.83;892.20;;;12.70;99.90;;;;;;6154248;23;20528;-79
2023/11/19 01:58:46;;;;;;;993.40;890.80;;;12.70;99.90;;;;;;6154685;23;20413;-79
2023/11/19 02:01:14;;;;;;;979.33;878.73;;;12.80;99.90;;;;;;6154607;23;20409;-79
2023/11/19 02:03:41;;;;;;;974.10;875.87;;;12.90;99.90;;;;;;6154346;23;20916;-79
2023/11/19 02:06:10;;;;;;;955.67;859.77;;;13.00;99.90;;;;;;6154802;23;20504;-79
2023/11/19 02:08:37;;;;;;;953.03;859.73;;;13.00;99.90;;;;;;6154213;23;20416;-79
2023/11/19 02:11:06;;;;;;;946.37;854.30;;;13.00;99.90;;;;;;6154769;23;20409;-79
2023/11/19 02:13:35;;;;;;;942.77;851.80;;;12.90;99.90;;;;;;6154493;23;20476;-78
2023/11/19 02:16:03;;;;;;;938.17;848.37;;;12.90;99.90;;;;;;6154507;23;20420;-78
2023/11/19 02:18:30;;;;;;;926.97;838.30;;;13.00;99.90;;;;;;6154558;23;20437;-78
2023/11/19 02:20:58;;;;;;;929.57;840.53;;;12.90;99.90;;;;;;6154354;23;20420;-77
2023/11/19 02:23:28;;;;;;;937.17;848.90;;;12.90;99.90;;;;;;6154165;23;20454;-78
2023/11/19 02:26:05;;;;;;;930.53;843.00;;;12.90;99.90;;;;;;6155014;23;20410;-78
2023/11/19 02:28:34;;;;;;;937.67;851.00;;;12.90;99.90;;;;;;6156151;23;20390;-78
2023/11/19 02:31:01;;;;;;;938.43;852.73;;;12.80;99.90;;;;;;6156527;23;20452;-79
2023/11/19 02:33:28;;;;;;;941.40;855.50;;;12.80;99.90;;;;;;6156329;23;20953;-78
2023/11/19 02:35:54;;;;;;;943.37;857.80;;;12.80;99.90;;;;;;6156134;23;20432;-78
2023/11/19 02:38:22;;;;;;;957.80;871.23;;;12.70;99.90;;;;;;6156337;23;20669;-78
2023/11/19 02:40:49;;;;;;;958.77;869.83;;;12.50;99.90;;;;;;6156650;23;20410;-78
2023/11/19 02:43:17;;;;;;;971.47;881.50;;;12.50;99.90;;;;;;6156582;23;20437;-77
2023/11/19 02:45:46;;;;;;;955.30;865.03;;;12.50;99.90;;;;;;6156488;23;20504;-77
2023/11/19 02:48:14;;;;;;;970.77;881.50;;;12.50;99.90;;;;;;6156426;23;20442;-77
2023/11/19 02:50:41;;;;;;;962.23;872.40;;;12.50;99.90;;;;;;6155822;23;20912;-77
2023/11/19 02:53:08;;;;;;;974.40;884.70;;;12.50;99.90;;;;;;6156052;23;20421;-77
2023/11/19 02:55:37;;;;;;;967.47;878.30;;;12.50;99.90;;;;;;6155990;23;20445;-77
2023/11/19 02:58:09;;;;;;;965.43;876.80;;;12.60;99.90;;;;;;6156170;23;20516;-77
2023/11/19 03:00:42;;;;;;;964.67;877.07;;;12.60;99.90;;;;;;6155826;23;20398;-77
2023/11/19 03:03:19;;;;;;;945.47;858.97;;;12.60;99.90;;;;;;6156342;23;20404;-76
2023/11/19 03:05:47;;;;;;;951.67;866.97;;;12.60;99.90;;;;;;6156362;23;20480;-77
2023/11/19 03:08:15;;;;;;;949.10;865.77;;;12.70;99.90;;;;;;6155730;23;20417;-76
2023/11/19 03:10:42;;;;;;;945.40;863.73;;;12.70;99.90;;;;;;6155836;23;20410;-76
2023/11/19 03:13:13;;;;;;;942.53;862.73;;;12.80;99.90;;;;;;6155736;23;20421;-75
2023/11/19 03:15:40;;;;;;;947.67;869.70;;;12.90;99.90;;;;;;6156098;23;20404;-75
2023/11/19 03:18:07;;;;;;;941.50;867.53;;;12.90;99.90;;;;;;6155828;23;20444;-75
2023/11/19 03:20:35;;;;;;;943.93;872.73;;;12.90;99.90;;;;;;6155886;23;20442;-75
2023/11/19 03:23:02;;;;;;;944.20;872.90;;;12.90;99.90;;;;;;6156171;23;20446;-75
2023/11/19 03:25:33;;;;;;;925.87;859.47;;;12.90;99.90;;;;;;6155913;23;20416;-74
2023/11/19 03:28:00;;;;;;;924.20;860.77;;;13.00;99.90;;;;;;6155652;23;20399;-75
2023/11/19 03:30:28;;;;;;;912.57;853.97;;;13.10;99.90;;;;;;6155788;23;20409;-74
2023/11/19 03:32:55;;;;;;;919.17;861.63;;;13.10;99.90;;;;;;6155910;23;20414;-74
2023/11/19 03:35:22;;;;;;;926.40;866.40;;;13.10;99.90;;;;;;6155357;23;20464;-73
2023/11/19 03:37:50;;;;;;;903.63;847.43;;;13.10;99.90;;;;;;6155278;23;20441;-74
2023/11/19 03:40:18;;;;;;;861.23;810.90;;;13.10;99.90;;;;;;6155750;23;20410;-74
2023/11/19 03:42:45;;;;;;;860.53;811.53;;;13.20;99.90;;;;;;6155894;23;20409;-74
2023/11/19 03:45:12;;;;;;;861.60;813.27;;;13.10;99.90;;;;;;6155372;23;20492;-73
2023/11/19 03:47:39;;;;;;;837.17;791.83;;;13.10;99.90;;;;;;6155844;23;20438;-74
2023/11/19 03:50:08;;;;;;;863.53;814.83;;;13.00;99.90;;;;;;6155266;23;20489;-73
2023/11/19 03:52:35;;;;;;;867.63;818.33;;;13.00;99.90;;;;;;6155785;23;20437;-73
2023/11/19 03:55:04;;;;;;;872.57;823.30;;;12.90;99.90;;;;;;6155154;23;20920;-73
2023/11/19 03:57:31;;;;;;;871.67;819.37;;;12.80;99.90;;;;;;6155227;23;20437;-74
2023/11/19 03:59:59;;;;;;;886.77;831.50;;;12.70;99.90;;;;;;6155547;23;20442;-73
2023/11/19 04:02:27;;;;;;;890.43;834.20;;;12.70;99.90;;;;;;6155602;23;20741;-73
2023/11/19 04:04:55;;;;;;;903.93;846.43;;;12.60;99.90;;;;;;6155612;23;20466;-73
2023/11/19 04:07:22;;;;;;;895.60;836.40;;;12.60;99.90;;;;;;6155690;23;20437;-73
2023/11/19 04:09:49;;;;;;;909.50;849.10;;;12.60;99.90;;;;;;6155358;23;20492;-73
2023/11/19 04:12:17;;;;;;;915.97;852.67;;;12.50;99.90;;;;;;6155505;23;20522;-73
2023/11/19 04:14:45;;;;;;;918.03;855.13;;;12.50;99.90;;;;;;6155267;23;20529;-73
2023/11/19 04:17:11;;;;;;;916.13;854.30;;;12.60;99.90;;;;;;6155473;23;20455;-73
2023/11/19 04:19:41;;;;;;;917.33;855.93;;;12.60;99.90;;;;;;6155297;23;20410;-73
2023/11/19 04:22:08;;;;;;;922.00;860.57;;;12.60;99.90;;;;;;6155580;23;20433;-73
2023/11/19 04:24:35;;;;;;;921.27;860.97;;;12.50;99.90;;;;;;6164862;23;20402;-73
2023/11/19 04:27:03;;;;;;;907.70;850.93;;;12.50;99.90;;;;;;6155261;23;20735;-73
2023/11/19 04:29:31;;;;;;;905.07;849.60;;;12.70;99.90;;;;;;6155296;23;20781;-73
2023/11/19 04:32:00;;;;;;;901.37;846.63;;;12.60;99.90;;;;;;6155448;23;20886;-73
2023/11/19 04:34:27;;;;;;;889.00;836.40;;;12.50;99.90;;;;;;6155271;23;20410;-72
2023/11/19 04:36:55;;;;;;;885.73;834.33;;;12.60;99.90;;;;;;6154929;23;20409;-73
2023/11/19 04:39:22;;;;;;;877.23;825.63;;;12.60;99.90;;;;;;6154692;23;20415;-72
2023/11/19 04:41:50;;;;;;;861.83;812.27;;;12.50;99.90;;;;;;6155448;23;20410;-73
2023/11/19 04:44:17;;;;;;;860.00;811.17;;;12.60;99.90;;;;;;6155287;23;20414;-73
2023/11/19 04:46:45;;;;;;;856.20;807.87;;;12.50;99.90;;;;;;6154912;23;20416;-73
2023/11/19 04:49:13;;;;;;;843.53;796.70;;;12.50;99.90;;;;;;6154676;23;20492;-72
2023/11/19 04:51:41;;;;;;;859.93;811.90;;;12.60;99.90;;;;;;6155295;23;20410;-72
2023/11/19 04:54:08;;;;;;;865.90;816.87;;;12.50;99.90;;;;;;6154715;23;21468;-72
2023/11/19 04:56:36;;;;;;;876.20;825.40;;;12.50;99.90;;;;;;6154720;23;20425;-72
2023/11/19 04:59:03;;;;;;;877.37;826.73;;;12.50;99.90;;;;;;6154934;23;20520;-72
2023/11/19 05:01:30;;;;;;;886.73;834.33;;;12.50;99.90;;;;;;6155157;23;20416;-72
2023/11/19 05:03:59;;;;;;;889.83;839.30;;;12.40;99.90;;;;;;6154663;23;20949;-72
2023/11/19 05:06:28;;;;;;;892.03;839.33;;;12.50;99.90;;;;;;6155020;23;20741;-72
2023/11/19 05:08:55;;;;;;;895.10;843.20;;;12.40;99.90;;;;;;6154892;23;20742;-73
2023/11/19 05:11:23;;;;;;;884.47;833.63;;;12.30;99.90;;;;;;6155271;23;20409;-73
2023/11/19 05:13:50;;;;;;;833.13;787.70;;;12.30;99.90;;;;;;6154910;23;20787;-73
2023/11/19 05:16:17;;;;;;;838.47;793.57;;;12.50;99.90;;;;;;6154667;23;20413;-73
2023/11/19 05:18:44;;;;;;;836.47;791.97;;;12.40;99.90;;;;;;6154657;23;20433;-72
2023/11/19 05:21:13;;;;;;;798.47;757.10;;;12.30;99.90;;;;;;6154640;23;20428;-72
2023/11/19 05:23:41;;;;;;;782.80;743.70;;;12.30;99.90;;;;;;6155070;23;20417;-72
2023/11/19 05:26:08;;;;;;;774.07;735.13;;;12.40;99.90;;;;;;6153964;23;20485;-72
2023/11/19 05:28:35;;;;;;;769.10;731.43;;;12.40;99.90;;;;;;6154407;23;20810;-71
2023/11/19 05:31:02;;;;;;;770.43;731.73;;;12.30;99.90;;;;;;6154387;23;20413;-72
2023/11/19 05:33:29;;;;;;;760.77;722.87;;;12.30;99.90;;;;;;6154647;23;20544;-72
2023/11/19 05:35:57;;;;;;;775.30;735.60;;;12.30;99.90;;;;;;6154201;23;20930;-72
2023/11/19 05:38:25;;;;;;;755.03;717.63;;;12.20;99.90;;;;;;6154275;23;20559;-72
2023/11/19 05:40:52;;;;;;;720.47;685.77;;;12.20;99.90;;;;;;6154438;23;20416;-72
2023/11/19 05:43:18;;;;;;;719.13;684.53;;;12.30;99.90;;;;;;6154457;23;20409;-72
2023/11/19 05:45:45;;;;;;;680.90;649.37;;;12.20;99.90;;;;;;6153940;23;20444;-72
2023/11/19 05:48:13;;;;;;;643.77;614.60;;;12.30;99.90;;;;;;6154341;23;20406;-72
2023/11/19 05:50:40;;;;;;;648.30;619.07;;;12.30;99.90;;;;;;6154757;23;20500;-72
2023/11/19 05:53:10;;;;;;;651.83;623.07;;;12.20;99.90;;;;;;6154689;23;20441;-72
2023/11/19 05:55:44;;;;;;;590.57;565.47;;;12.20;99.90;;;;;;6154517;23;20440;-72
2023/11/19 05:58:13;;;;;;;558.93;534.73;;;12.30;99.90;;;;;;6154458;23;20449;-71
2023/11/19 06:00:40;;;;;;;519.43;497.90;;;12.30;99.90;;;;;;6153994;23;20493;-72
2023/11/19 06:03:07;;;;;;;525.23;502.43;;;12.30;99.90;;;;;;6156654;23;20417;-71
2023/11/19 06:05:34;;;;;;;426.63;410.15;;;12.20;99.90;;;;;;6155440;23;20451;-72
2023/11/19 06:08:01;;;;;;;452.77;435.53;;;12.20;99.90;;;;;;6154650;23;20477;-71
2023/11/19 06:10:30;;;;;;;499.07;479.70;;;12.20;99.90;;;;;;6156135;23;20902;-72
2023/11/19 06:13:00;;;;;;;501.03;481.77;;;12.20;99.90;;;;;;6156811;23;20492;-72
2023/11/19 06:15:28;;;;;;;499.63;480.33;;;12.10;99.90;;;;;;6156810;23;20743;-72
2023/11/19 06:17:55;;;;;;;502.53;482.87;;;12.10;99.90;;;;;;6156928;23;20465;-71
2023/11/19 06:20:21;;;;;;;487.93;468.17;;;12.10;99.90;;;;;;6156503;23;20433;-72
2023/11/19 06:22:48;;;;;;;493.40;473.40;;;12.10;99.90;;;;;;6156517;23;20441;-72
2023/11/19 06:25:15;;;;;;;502.00;481.87;;;12.10;99.90;;;;;;6156570;23;20464;-72
2023/11/19 06:27:43;;;;;;;495.10;475.00;;;12.00;99.90;;;;;;6156459;23;20489;-72
2023/11/19 06:30:12;;;;;;;470.37;451.50;;;12.00;99.90;;;;;;6156824;23;20441;-72
2023/11/19 06:32:39;;;;;;;457.93;438.70;;;12.00;99.90;;;;;;6156532;23;20900;-72
2023/11/19 06:35:07;;;;;;;445.10;427.80;;;11.90;99.90;;;;;;6155765;23;20508;-72
2023/11/19 06:37:34;;;;;;;432.33;415.97;;;12.00;99.90;;;;;;6156602;23;20413;-72
2023/11/19 06:40:01;;;;;;;399.20;384.70;;;11.90;99.90;;;;;;6156531;23;20421;-72
2023/11/19 06:42:28;;;;;;;391.17;376.67;;;11.90;99.90;;;;;;6156133;23;20410;-73
2023/11/19 06:44:57;;;;;;;411.70;395.20;;;11.80;99.90;;;;;;6156213;23;20461;-72
2023/11/19 06:47:27;;;;;;;399.73;384.87;;;11.80;99.90;;;;;;6156345;23;20413;-72
2023/11/19 06:49:54;;;;;;;424.63;408.87;;;11.90;99.90;;;;;;6156127;23;20413;-72
2023/11/19 06:52:21;;;;;;;417.60;400.97;;;11.80;99.90;;;;;;6156520;23;20500;-72
2023/11/19 06:54:48;;;;;;;393.50;378.60;;;11.90;99.90;;;;;;6154915;23;20431;-72
2023/11/19 06:57:15;;;;;;;389.80;375.37;;;11.90;99.90;;;;;;6156263;23;20481;-72
2023/11/19 06:59:43;;;;;;;409.60;393.57;;;11.90;99.90;;;;;;6156190;23;20525;-72
2023/11/19 07:02:10;;;;;;;403.50;387.17;;;11.80;99.90;;;;;;6156319;23;20445;-72
2023/11/19 07:04:39;;;;;;;383.83;369.97;;;11.80;99.90;;;;;;6156086;23;20441;-72
2023/11/19 07:07:06;;;;;;;362.30;347.67;;;11.70;99.90;;;;;;6156036;23;20890;-73
2023/11/19 07:09:33;;;;;;;314.40;302.40;;;11.70;99.90;;;;;;6156257;23;20788;-72
2023/11/19 07:12:01;;;;;;;269.17;259.47;;;11.80;99.90;;;;;;6156289;23;20419;-74
2023/11/19 07:14:28;;;;;;;255.37;245.77;;;11.70;99.90;;;;;;6155646;23;20425;-75
2023/11/19 07:16:55;;;;;;;256.07;246.30;;;11.70;99.90;;;;;;6156437;23;20414;-75
2023/11/19 07:19:22;;;;;;;280.67;269.97;;;11.70;99.90;;;;;;6155698;23;20437;-74
2023/11/19 07:21:51;;;;;;;322.57;310.57;;;11.70;99.90;;;;;;6155892;23;20473;-75
2023/11/19 07:24:17;;;;;;;318.20;306.70;;;11.70;99.90;;;;;;6156138;23;20441;-74
2023/11/19 07:26:45;;;;;;;331.67;319.57;;;11.70;99.90;;;;;;6155779;23;20421;-74
2023/11/19 07:29:12;;;;;;;363.33;349.33;;;11.60;99.90;;;;;;6155420;23;20498;-75
2023/11/19 07:31:38;;;;;;;367.30;353.47;;;11.70;99.90;;;;;;6155806;23;20800;-74
2023/11/19 07:34:06;;;;;;;369.60;355.67;;;11.60;99.90;;;;;;6155093;23;20409;-74
2023/11/19 07:36:33;;;;;;;349.23;335.57;;;11.60;99.90;;;;;;6155657;23;20414;-75
2023/11/19 07:39:02;;;;;;;368.70;354.73;;;11.70;99.90;;;;;;6154846;23;20440;-75
2023/11/19 07:41:28;;;;;;;337.87;325.97;;;11.70;99.90;;;;;;6155705;23;20421;-75
2023/11/19 07:43:56;;;;;;;332.27;319.00;;;11.70;99.90;;;;;;6155947;23;20489;-75
2023/11/19 07:46:23;;;;;;;348.57;336.00;;;11.80;99.90;;;;;;6155935;23;20409;-75
2023/11/19 07:48:50;;;;;;;370.67;357.27;;;11.70;99.90;;;;;;6155745;23;20719;-75
2023/11/19 07:51:16;;;;;;;368.57;355.33;;;11.60;99.90;;;;;;6155574;23;20417;-75
2023/11/19 07:53:44;;;;;;;326.40;313.40;;;11.60;99.90;;;;;;6155522;23;20484;-75
2023/11/19 07:56:12;;;;;;;311.77;300.30;;;11.70;99.90;;;;;;6155597;23;21009;-74
2023/11/19 07:58:39;;;;;;;284.37;273.67;;;11.80;99.90;;;;;;6155398;23;20477;-75
2023/11/19 08:01:07;;;;;;;283.33;272.93;;;11.90;99.90;;;;;;6155425;23;20418;-74
2023/11/19 08:03:34;;;;;;;275.90;266.10;;;11.90;99.90;;;;;;6155642;23;20410;-74
2023/11/19 08:06:02;;;;;;;284.97;274.13;;;11.80;99.90;;;;;;6155663;23;20742;-74
2023/11/19 08:08:29;;;;;;;298.23;287.00;;;11.90;99.90;;;;;;6155604;23;20759;-74
2023/11/19 08:10:56;;;;;;;303.87;292.00;;;11.90;99.90;;;;;;6155732;23;20414;-74
2023/11/19 08:13:25;;;;;;;307.03;296.03;;;11.90;99.90;;;;;;6155282;23;20499;-74
2023/11/19 08:15:52;;;;;;;324.03;312.03;;;11.90;99.90;;;;;;6155438;23;20417;-74
2023/11/19 08:18:19;;;;;;;279.47;269.77;;;11.90;99.90;;;;;;6154571;23;20437;-74
2023/11/19 08:20:49;;;;;;;285.73;274.93;;;12.00;99.90;;;;;;6154585;23;20446;-74
2023/11/19 08:23:16;;;;;;;268.90;259.03;;;12.00;99.90;;;;;;6155065;23;20402;-74
2023/11/19 08:25:44;;;;;;;258.40;248.30;;;12.10;99.90;;;;;;6154239;23;20432;-74
2023/11/19 08:28:11;;;;;;;266.43;256.50;;;12.10;99.90;;;;;;6154823;23;20929;-74
2023/11/19 08:30:39;;;;;;;217.97;209.53;;;12.10;99.90;;;;;;6154122;23;20495;-74
2023/11/19 08:33:06;;;;;;;212.10;203.87;;;12.20;99.90;;;;;;6154867;23;20409;-74
2023/11/19 08:35:33;;;;;;;191.47;183.70;;;12.20;99.90;;;;;;6153537;23;20410;-73
2023/11/19 08:38:01;;;;;;;125.90;119.83;;;12.30;99.90;;;;;;6154763;23;20489;-74
2023/11/19 08:40:29;;;;;;;105.57;100.07;;;12.30;99.90;;;;;;6154362;23;20488;-74
2023/11/19 08:42:56;;;;;;;87.50;83.17;;;12.30;99.90;;;;;;6154316;23;20902;-74
2023/11/19 08:45:23;;;;;;;66.87;62.47;;;12.40;99.90;;;;;;6154260;23;20417;-74
2023/11/19 08:47:52;;;;;;;74.23;69.73;;;12.40;99.90;;;;;;6154144;23;20444;-74
2023/11/19 08:50:19;;;;;;;56.97;52.33;;;12.40;99.90;;;;;;6153680;23;20438;-74
2023/11/19 08:52:45;;;;;;;50.20;47.03;;;12.50;99.90;;;;;;6154837;23;20418;-74
2023/11/19 08:55:13;;;;;;;40.00;36.57;;;12.50;99.90;;;;;;6154403;23;20509;-74
2023/11/19 08:57:40;;;;;;;43.20;39.80;;;12.60;99.90;;;;;;6154260;23;20460;-74
2023/11/19 09:00:08;;;;;;;28.43;20.20;;;12.70;99.90;;;;;;6154138;23;20745;-74
2023/11/19 09:02:34;;;;;;;26.27;13.90;;;12.70;99.90;;;;;;6154599;23;20888;-74
2023/11/19 09:05:04;;;;;;;27.35;8.20;;;12.80;99.90;;;;;;6153322;23;20467;-73
2023/11/19 09:07:32;;;;;;;20.97;8.63;;;12.90;99.90;;;;;;6163298;23;20626;-73
2023/11/19 09:09:58;;;;;;;15.87;8.60;;;12.80;99.90;;;;;;6154004;23;20914;-72
2023/11/19 09:12:25;;;;;;;16.30;6.63;;;12.90;99.90;;;;;;6155096;23;20420;-73
2023/11/19 09:14:52;;;;;;;15.80;6.43;;;12.90;99.90;;;;;;6154909;23;20463;-72
2023/11/19 09:17:19;;;;;;;21.63;7.20;;;13.00;99.90;;;;;;6154594;23;20472;-73
2023/11/19 09:19:46;;;;;;;28.03;7.03;;;13.00;99.90;;;;;;6154920;23;20434;-72
2023/11/19 09:22:15;;;;;;;14.90;6.37;;;13.00;99.90;;;;;;6155002;23;20787;-72
2023/11/19 09:24:43;;;;;;;23.33;6.63;;;13.00;99.90;;;;;;6154371;23;20409;-72
2023/11/19 09:27:10;;;;;;;21.20;7.60;;;13.10;99.90;;;;;;6154663;23;20413;-73
2023/11/19 09:29:37;;;;;;;22.20;6.50;;;13.20;99.90;;;;;;6154940;23;20496;-73
2023/11/19 09:32:05;;;;;;;18.90;7.37;;;13.20;99.90;;;;;;6154575;23;20413;-73
2023/11/19 09:34:32;;;;;;;21.33;5.77;;;13.40;99.90;;;;;;6154923;23;20432;-73
2023/11/19 09:36:59;;;;;;;26.73;5.57;;;13.50;99.90;;;;;;6153583;23;20744;-73
2023/11/19 09:39:27;;;;;;;18.63;6.13;;;13.40;99.90;;;;;;6154472;23;20465;-72
2023/11/19 09:41:54;;;;;;;18.00;5.13;;;13.40;99.90;;;;;;6154378;23;20489;-72
2023/11/19 09:44:21;;;;;;;27.23;7.93;;;13.50;99.90;;;;;;6154755;23;20420;-73
2023/11/19 09:46:48;;;;;;;22.80;5.03;;;13.50;99.90;;;;;;6154324;23;20410;-72
2023/11/19 09:49:17;;;;;;;20.60;6.10;;;13.60;99.90;;;;;;6154365;23;20406;-73
2023/11/19 09:51:44;;;;;;;24.77;5.20;;;13.70;99.90;;;;;;6154857;23;20489;-72
2023/11/19 09:54:12;;;;;;;21.77;6.47;;;13.70;99.90;;;;;;6154450;23;20501;-72
2023/11/19 09:56:41;;;;;;;21.80;4.93;;;13.70;99.90;;;;;;6154504;23;20501;-73
2023/11/19 09:59:10;;;;;;;27.87;6.13;;;13.70;99.90;;;;;;6154087;23;20836;-73
2023/11/19 10:01:37;;;;;;;31.73;4.63;;;13.70;99.90;;;;;;6154679;23;20409;-72
2023/11/19 10:04:06;;;;;;;16.80;4.43;;;13.70;99.90;;;;;;6154500;23;20440;-72
2023/11/19 10:06:33;;;;;;;21.93;5.43;;;13.70;99.90;;;;;;6154979;23;20420;-72
2023/11/19 10:09:00;;;;;;;22.03;5.47;;;13.60;99.90;;;;;;6153987;23;20406;-73
2023/11/19 10:11:27;;;;;;;23.63;7.53;;;13.70;99.90;;;;;;6154477;23;20409;-72
2023/11/19 10:13:56;;;;;;;17.83;4.77;;;13.70;99.90;;;;;;6154545;23;20441;-72
2023/11/19 10:16:31;;;;;;;28.90;6.67;;;13.90;99.90;;;;;;6154479;23;20441;-72
2023/11/19 10:18:58;;;;;;;26.37;5.00;;;13.90;99.90;;;;;;6154590;23;20425;-72
2023/11/19 10:21:27;;;;;;;19.70;5.83;;;13.90;99.90;;;;;;6154905;23;20409;-72
2023/11/19 10:23:57;;;;;;;25.33;5.10;;;14.00;99.90;;;;;;6154460;23;20413;-72
2023/11/19 10:26:24;;;;;;;21.23;5.50;;;13.90;99.90;;;;;;6154496;23;20410;-72
2023/11/19 10:28:51;;;;;;;20.53;4.60;;;14.00;99.30;;;;;;6154180;23;20493;-72
2023/11/19 10:31:24;;;;;;;26.40;5.50;;;14.20;99.40;;;;;;6155047;23;20435;-72
2023/11/19 10:33:51;;;;;;;18.50;5.23;;;14.20;99.40;;;;;;6154831;23;20394;-72
2023/11/19 10:36:19;;;;;;;20.53;5.03;;;14.30;99.40;;;;;;6154306;23;20414;-72
2023/11/19 10:38:54;;;;;;;16.43;6.57;;;14.60;99.50;;;;;;6154286;23;20468;-72
2023/11/19 10:41:31;;;;;;;13.53;3.77;;;14.70;99.60;;;;;;6154223;23;20399;-72
2023/11/19 10:43:59;;;;;;;24.87;5.23;;;14.80;99.60;;;;;;6154413;23;20424;-72
2023/11/19 10:46:38;;;;;;;17.87;4.60;;;14.90;99.50;;;;;;6154064;23;20409;-72
2023/11/19 10:49:06;;;;;;;26.60;6.17;;;14.80;96.20;;;;;;6155596;23;20727;-72
2023/11/19 10:51:33;;;;;;;21.47;4.90;;;14.80;95.50;;;;;;6156126;23;20414;-71
2023/11/19 10:54:05;;;;;;;18.73;3.90;;;14.80;95.40;;;;;;6155759;23;20413;-72
2023/11/19 10:56:33;;;;;;;22.63;4.47;;;14.70;96.30;;;;;;6155411;23;20453;-71
2023/11/19 10:59:01;;;;;;;24.50;4.60;;;14.50;95.30;;;;;;6157331;23;20450;-71
2023/11/19 11:01:49;;;;;;;21.17;4.47;;;14.40;96.20;;;;;;6157892;23;20797;-71
2023/11/19 11:04:20;;;;;;;13.70;4.30;;;14.30;96.10;;;;;;6157534;23;20398;-70
2023/11/19 11:06:50;;;;;;;25.23;4.47;;;14.00;99.90;;;;;;6156879;23;20477;-71
2023/11/19 11:09:18;;;;;;;14.53;4.47;;;13.80;99.20;;;;;;6156596;23;20778;-71
2023/11/19 11:11:48;;;;;;;23.33;4.00;;;13.70;99.20;;;;;;6156276;23;20723;-71
2023/11/19 11:14:17;;;;;;;12.63;4.07;;;14.10;99.30;;;;;;6156003;23;20922;-71
2023/11/19 11:16:47;;;;;;;16.70;3.63;;;14.30;99.40;;;;;;6156373;23;20410;-71
2023/11/19 11:19:14;;;;;;;13.97;3.93;;;14.50;96.70;;;;;;6156167;23;20477;-71
2023/11/19 11:21:45;;;;;;;19.90;4.23;;;14.90;96.40;;;;;;6156045;23;20946;-71
2023/11/19 11:24:44;;;;;;;17.80;4.13;;;15.10;93.10;;;;;;6155892;23;20498;-71
2023/11/19 11:27:40;;;;;;;17.07;3.40;;;15.50;93.20;;;;;;6156028;23;20390;-71
2023/11/19 11:30:14;;;;;;;27.70;4.73;;;15.50;93.20;;;;;;6156150;23;20763;-71
2023/11/19 11:32:50;;;;;;;17.53;4.63;;;15.70;93.30;;;;;;6156144;23;20396;-71
2023/11/19 11:35:31;;;;;;;21.10;4.23;;;15.90;93.40;;;;;;6155838;23;20885;-71
2023/11/19 11:38:05;;;;;;;14.07;5.00;;;16.20;90.10;;;;;;6155826;23;20871;-71
2023/11/19 11:40:31;;;;;;;17.07;3.67;;;16.20;74.80;;;;;;6156007;23;20492;-71
2023/11/19 11:42:59;;;;;;;17.80;3.63;;;16.10;74.60;;;;;;6156079;23;20409;-71
2023/11/19 11:45:37;;;;;;;17.13;3.67;;;16.30;74.80;;;;;;6156229;23;20414;-71
2023/11/19 11:48:17;;;;;;;10.73;3.20;;;16.30;74.80;;;;;;6155809;23;20394;-71
2023/11/19 11:50:58;;;;;;;18.83;4.77;;;16.20;74.70;;;;;;6155678;23;20394;-71
2023/11/19 11:53:26;;;;;;;15.73;3.73;;;16.00;74.50;;;;;;6156010;23;20394;-71
2023/11/19 11:56:03;;;;;;;23.30;3.90;;;15.70;81.40;;;;;;6155581;23;20421;-70
2023/11/19 11:58:37;;;;;;;16.70;4.57;;;15.30;82.50;;;;;;6155661;23;20461;-71
2023/11/19 12:01:08;;;;;;;15.13;3.50;;;15.60;82.10;;;;;;6155883;23;20598;-70
2023/11/19 12:03:38;;;;;;;12.70;4.00;;;15.40;81.80;;;;;;6155985;23;20394;-70
2023/11/19 12:06:06;;;;;;;21.77;5.23;;;15.50;82.00;;;;;;6156079;23;20410;-71
2023/11/19 12:08:36;;;;;;;34.77;5.70;;;15.50;81.90;;;;;;6155350;23;20421;-70
2023/11/19 12:11:03;;;;;;;19.17;4.00;;;15.30;81.80;;;;;;6155494;23;20413;-70
2023/11/19 12:13:56;;;;;;;13.07;3.80;;;15.30;82.70;;;;;;6155875;23;20436;-70
2023/11/19 12:16:23;;;;;;;21.47;4.30;;;15.40;81.90;;;;;;6155406;23;20401;-71
2023/11/19 12:18:52;;;;;;;20.87;4.60;;;15.80;82.20;;;;;;6155250;23;20906;-70